sensor_id;sensor_type;location;lat;lon;timestamp;P1;durP1;ratioP1;P2;durP2;ratioP2
60488;SDS011;46331;49.252;8.904;2023-04-24T00:00:34;2.77;;;0.83;;
60488;SDS011;46331;49.252;8.904;2023-04-24T00:01:14;2.10;;;0.50;;
60488;SDS011;46331;49.252;8.904;2023-04-24T00:01:55;2.50;;;0.40;;
60488;SDS011;46331;49.252;8.904;2023-04-24T00:02:37;2.75;;;0.93;;
60488;SDS011;46331;49.252;8.904;2023-04-24T00:03:18;2.40;;;0.60;;
60488;SDS011;46331;49.252;8.904;2023-04-24T00:04:01;3.22;;;0.40;;
60488;SDS011;46331;49.252;8.904;2023-04-24T00:04:41;1.97;;;0.30;;
60488;SDS011;46331;49.252;8.904;2023-04-24T00:05:24;4.05;;;0.40;;
60488;SDS011;46331;49.252;8.904;2023-04-24T00:06:05;2.05;;;0.40;;
60488;SDS011;46331;49.252;8.904;2023-04-24T00:06:48;1.70;;;0.35;;
60488;SDS011;46331;49.252;8.904;2023-04-24T00:07:34;1.47;;;0.40;;
60488;SDS011;46331;49.252;8.904;2023-04-24T00:08:15;3.83;;;0.60;;
60488;SDS011;46331;49.252;8.904;2023-04-24T00:08:56;2.22;;;0.30;;
60488;SDS011;46331;49.252;8.904;2023-04-24T00:09:36;2.42;;;0.32;;
60488;SDS011;46331;49.252;8.904;2023-04-24T00:10:17;2.13;;;0.47;;
60488;SDS011;46331;49.252;8.904;2023-04-24T00:10:57;3.00;;;0.43;;
60488;SDS011;46331;49.252;8.904;2023-04-24T00:11:38;2.50;;;0.33;;
60488;SDS011;46331;49.252;8.904;2023-04-24T00:12:18;1.85;;;0.40;;
60488;SDS011;46331;49.252;8.904;2023-04-24T00:12:59;2.72;;;0.40;;
60488;SDS011;46331;49.252;8.904;2023-04-24T00:13:40;2.27;;;0.30;;
60488;SDS011;46331;49.252;8.904;2023-04-24T00:14:20;1.93;;;0.33;;
60488;SDS011;46331;49.252;8.904;2023-04-24T00:15:01;2.55;;;0.32;;
60488;SDS011;46331;49.252;8.904;2023-04-24T00:15:42;2.60;;;0.68;;
60488;SDS011;46331;49.252;8.904;2023-04-24T00:16:23;4.47;;;0.50;;
60488;SDS011;46331;49.252;8.904;2023-04-24T00:17:06;2.40;;;0.40;;
60488;SDS011;46331;49.252;8.904;2023-04-24T00:17:46;3.63;;;0.50;;
60488;SDS011;46331;49.252;8.904;2023-04-24T00:18:27;3.53;;;0.43;;
60488;SDS011;46331;49.252;8.904;2023-04-24T00:19:08;2.07;;;0.40;;
60488;SDS011;46331;49.252;8.904;2023-04-24T00:19:48;1.70;;;0.30;;
60488;SDS011;46331;49.252;8.904;2023-04-24T00:20:31;1.90;;;0.40;;
60488;SDS011;46331;49.252;8.904;2023-04-24T00:21:15;2.08;;;0.40;;
60488;SDS011;46331;49.252;8.904;2023-04-24T00:21:57;5.07;;;0.80;;
60488;SDS011;46331;49.252;8.904;2023-04-24T00:22:38;3.08;;;0.45;;
60488;SDS011;46331;49.252;8.904;2023-04-24T00:23:18;4.57;;;0.77;;
60488;SDS011;46331;49.252;8.904;2023-04-24T00:23:59;2.08;;;0.45;;
60488;SDS011;46331;49.252;8.904;2023-04-24T00:24:40;1.90;;;0.43;;
60488;SDS011;46331;49.252;8.904;2023-04-24T00:25:21;3.72;;;0.32;;
60488;SDS011;46331;49.252;8.904;2023-04-24T00:26:01;1.77;;;0.30;;
60488;SDS011;46331;49.252;8.904;2023-04-24T00:26:42;1.98;;;0.40;;
60488;SDS011;46331;49.252;8.904;2023-04-24T00:27:23;3.03;;;0.57;;
60488;SDS011;46331;49.252;8.904;2023-04-24T00:28:04;2.97;;;0.50;;
60488;SDS011;46331;49.252;8.904;2023-04-24T00:28:44;2.63;;;0.50;;
60488;SDS011;46331;49.252;8.904;2023-04-24T00:29:25;3.38;;;0.55;;
60488;SDS011;46331;49.252;8.904;2023-04-24T00:30:05;1.77;;;0.43;;
60488;SDS011;46331;49.252;8.904;2023-04-24T00:30:46;3.35;;;0.50;;
60488;SDS011;46331;49.252;8.904;2023-04-24T00:31:27;2.97;;;0.50;;
60488;SDS011;46331;49.252;8.904;2023-04-24T00:32:07;2.53;;;0.43;;
60488;SDS011;46331;49.252;8.904;2023-04-24T00:32:48;2.40;;;0.40;;
60488;SDS011;46331;49.252;8.904;2023-04-24T00:33:28;3.20;;;0.53;;
60488;SDS011;46331;49.252;8.904;2023-04-24T00:34:09;2.70;;;0.53;;
60488;SDS011;46331;49.252;8.904;2023-04-24T00:34:51;2.30;;;0.47;;
60488;SDS011;46331;49.252;8.904;2023-04-24T00:35:32;2.13;;;0.40;;
60488;SDS011;46331;49.252;8.904;2023-04-24T00:36:12;3.33;;;0.40;;
60488;SDS011;46331;49.252;8.904;2023-04-24T00:36:53;2.95;;;0.50;;
60488;SDS011;46331;49.252;8.904;2023-04-24T00:37:34;2.72;;;0.70;;
60488;SDS011;46331;49.252;8.904;2023-04-24T00:38:15;4.07;;;0.50;;
60488;SDS011;46331;49.252;8.904;2023-04-24T00:38:56;2.87;;;0.57;;
60488;SDS011;46331;49.252;8.904;2023-04-24T00:39:37;1.90;;;0.50;;
60488;SDS011;46331;49.252;8.904;2023-04-24T00:40:18;2.17;;;0.40;;
60488;SDS011;46331;49.252;8.904;2023-04-24T00:40:58;3.07;;;0.50;;
60488;SDS011;46331;49.252;8.904;2023-04-24T00:41:40;1.85;;;0.40;;
60488;SDS011;46331;49.252;8.904;2023-04-24T00:42:20;3.70;;;0.60;;
60488;SDS011;46331;49.252;8.904;2023-04-24T00:43:01;4.90;;;0.50;;
60488;SDS011;46331;49.252;8.904;2023-04-24T00:43:41;2.03;;;0.47;;
60488;SDS011;46331;49.252;8.904;2023-04-24T00:44:22;2.37;;;0.40;;
60488;SDS011;46331;49.252;8.904;2023-04-24T00:45:03;4.53;;;0.60;;
60488;SDS011;46331;49.252;8.904;2023-04-24T00:45:44;3.47;;;0.40;;
60488;SDS011;46331;49.252;8.904;2023-04-24T00:46:25;2.33;;;0.43;;
60488;SDS011;46331;49.252;8.904;2023-04-24T00:47:05;2.70;;;0.40;;
60488;SDS011;46331;49.252;8.904;2023-04-24T00:47:46;2.63;;;0.40;;
60488;SDS011;46331;49.252;8.904;2023-04-24T00:48:26;3.17;;;0.47;;
60488;SDS011;46331;49.252;8.904;2023-04-24T00:49:07;3.38;;;0.70;;
60488;SDS011;46331;49.252;8.904;2023-04-24T00:49:48;3.40;;;0.40;;
60488;SDS011;46331;49.252;8.904;2023-04-24T00:50:28;2.93;;;0.47;;
60488;SDS011;46331;49.252;8.904;2023-04-24T00:51:10;2.13;;;0.40;;
60488;SDS011;46331;49.252;8.904;2023-04-24T00:51:51;1.88;;;0.40;;
60488;SDS011;46331;49.252;8.904;2023-04-24T00:52:32;4.55;;;0.60;;
60488;SDS011;46331;49.252;8.904;2023-04-24T00:53:12;4.50;;;0.50;;
60488;SDS011;46331;49.252;8.904;2023-04-24T00:53:53;2.75;;;0.50;;
60488;SDS011;46331;49.252;8.904;2023-04-24T00:54:34;3.17;;;0.50;;
60488;SDS011;46331;49.252;8.904;2023-04-24T00:55:15;1.95;;;0.40;;
60488;SDS011;46331;49.252;8.904;2023-04-24T00:55:56;3.10;;;0.40;;
60488;SDS011;46331;49.252;8.904;2023-04-24T00:56:37;2.77;;;0.60;;
60488;SDS011;46331;49.252;8.904;2023-04-24T00:57:18;3.10;;;0.45;;
60488;SDS011;46331;49.252;8.904;2023-04-24T00:57:58;2.07;;;0.50;;
60488;SDS011;46331;49.252;8.904;2023-04-24T00:58:39;2.72;;;0.40;;
60488;SDS011;46331;49.252;8.904;2023-04-24T00:59:22;4.28;;;0.32;;
60488;SDS011;46331;49.252;8.904;2023-04-24T01:00:02;2.45;;;0.40;;
60488;SDS011;46331;49.252;8.904;2023-04-24T01:00:45;1.55;;;0.30;;
60488;SDS011;46331;49.252;8.904;2023-04-24T01:01:28;1.73;;;0.40;;
60488;SDS011;46331;49.252;8.904;2023-04-24T01:02:09;1.38;;;0.30;;
60488;SDS011;46331;49.252;8.904;2023-04-24T01:02:51;1.88;;;0.30;;
60488;SDS011;46331;49.252;8.904;2023-04-24T01:03:32;3.45;;;0.35;;
60488;SDS011;46331;49.252;8.904;2023-04-24T01:04:13;2.80;;;0.50;;
60488;SDS011;46331;49.252;8.904;2023-04-24T01:04:54;2.57;;;0.50;;
60488;SDS011;46331;49.252;8.904;2023-04-24T01:05:35;2.17;;;0.40;;
60488;SDS011;46331;49.252;8.904;2023-04-24T01:06:15;3.03;;;0.40;;
60488;SDS011;46331;49.252;8.904;2023-04-24T01:06:57;2.87;;;0.60;;
60488;SDS011;46331;49.252;8.904;2023-04-24T01:07:38;2.13;;;0.40;;
60488;SDS011;46331;49.252;8.904;2023-04-24T01:08:20;2.85;;;0.35;;
60488;SDS011;46331;49.252;8.904;2023-04-24T01:09:04;1.67;;;0.38;;
60488;SDS011;46331;49.252;8.904;2023-04-24T01:09:44;2.00;;;0.40;;
60488;SDS011;46331;49.252;8.904;2023-04-24T01:10:29;2.83;;;0.30;;
60488;SDS011;46331;49.252;8.904;2023-04-24T01:11:11;2.72;;;0.55;;
60488;SDS011;46331;49.252;8.904;2023-04-24T01:11:52;3.22;;;0.43;;
60488;SDS011;46331;49.252;8.904;2023-04-24T01:12:33;2.38;;;0.40;;
60488;SDS011;46331;49.252;8.904;2023-04-24T01:13:13;6.00;;;0.60;;
60488;SDS011;46331;49.252;8.904;2023-04-24T01:13:54;3.90;;;0.50;;
60488;SDS011;46331;49.252;8.904;2023-04-24T01:14:35;4.73;;;0.60;;
60488;SDS011;46331;49.252;8.904;2023-04-24T01:15:15;2.80;;;0.52;;
60488;SDS011;46331;49.252;8.904;2023-04-24T01:15:56;2.13;;;0.47;;
60488;SDS011;46331;49.252;8.904;2023-04-24T01:16:37;3.10;;;0.40;;
60488;SDS011;46331;49.252;8.904;2023-04-24T01:17:19;2.40;;;0.33;;
60488;SDS011;46331;49.252;8.904;2023-04-24T01:18:01;3.30;;;0.40;;
60488;SDS011;46331;49.252;8.904;2023-04-24T01:18:43;4.78;;;0.40;;
60488;SDS011;46331;49.252;8.904;2023-04-24T01:19:25;1.85;;;0.47;;
60488;SDS011;46331;49.252;8.904;2023-04-24T01:20:06;2.60;;;0.82;;
60488;SDS011;46331;49.252;8.904;2023-04-24T01:20:47;2.13;;;0.32;;
60488;SDS011;46331;49.252;8.904;2023-04-24T01:21:37;3.10;;;0.47;;
60488;SDS011;46331;49.252;8.904;2023-04-24T01:22:18;1.85;;;0.30;;
60488;SDS011;46331;49.252;8.904;2023-04-24T01:22:58;4.38;;;0.65;;
60488;SDS011;46331;49.252;8.904;2023-04-24T01:23:39;4.27;;;0.50;;
60488;SDS011;46331;49.252;8.904;2023-04-24T01:24:20;1.98;;;0.40;;
60488;SDS011;46331;49.252;8.904;2023-04-24T01:25:01;3.40;;;0.50;;
60488;SDS011;46331;49.252;8.904;2023-04-24T01:25:44;2.67;;;0.40;;
60488;SDS011;46331;49.252;8.904;2023-04-24T01:26:25;2.70;;;0.40;;
60488;SDS011;46331;49.252;8.904;2023-04-24T01:27:06;4.10;;;0.50;;
60488;SDS011;46331;49.252;8.904;2023-04-24T01:27:48;3.38;;;0.40;;
60488;SDS011;46331;49.252;8.904;2023-04-24T01:28:28;2.10;;;0.32;;
60488;SDS011;46331;49.252;8.904;2023-04-24T01:29:09;2.33;;;0.50;;
60488;SDS011;46331;49.252;8.904;2023-04-24T01:29:50;3.67;;;0.50;;
60488;SDS011;46331;49.252;8.904;2023-04-24T01:30:32;2.03;;;0.40;;
60488;SDS011;46331;49.252;8.904;2023-04-24T01:31:13;1.90;;;0.40;;
60488;SDS011;46331;49.252;8.904;2023-04-24T01:31:54;1.52;;;0.30;;
60488;SDS011;46331;49.252;8.904;2023-04-24T01:32:35;2.90;;;0.63;;
60488;SDS011;46331;49.252;8.904;2023-04-24T01:33:17;3.05;;;0.50;;
60488;SDS011;46331;49.252;8.904;2023-04-24T01:33:58;2.78;;;0.40;;
60488;SDS011;46331;49.252;8.904;2023-04-24T01:34:38;3.33;;;0.50;;
60488;SDS011;46331;49.252;8.904;2023-04-24T01:35:20;1.38;;;0.30;;
60488;SDS011;46331;49.252;8.904;2023-04-24T01:36:01;3.07;;;0.50;;
60488;SDS011;46331;49.252;8.904;2023-04-24T01:36:41;1.83;;;0.30;;
60488;SDS011;46331;49.252;8.904;2023-04-24T01:37:25;1.65;;;0.40;;
60488;SDS011;46331;49.252;8.904;2023-04-24T01:38:07;3.33;;;0.43;;
60488;SDS011;46331;49.252;8.904;2023-04-24T01:38:47;3.23;;;0.47;;
60488;SDS011;46331;49.252;8.904;2023-04-24T01:39:28;4.18;;;0.50;;
60488;SDS011;46331;49.252;8.904;2023-04-24T01:40:08;2.80;;;0.53;;
60488;SDS011;46331;49.252;8.904;2023-04-24T01:40:50;1.80;;;0.30;;
60488;SDS011;46331;49.252;8.904;2023-04-24T01:41:31;2.42;;;1.00;;
60488;SDS011;46331;49.252;8.904;2023-04-24T01:42:12;3.70;;;0.60;;
60488;SDS011;46331;49.252;8.904;2023-04-24T01:42:53;5.07;;;1.00;;
60488;SDS011;46331;49.252;8.904;2023-04-24T01:43:34;2.55;;;0.60;;
60488;SDS011;46331;49.252;8.904;2023-04-24T01:44:15;8.93;;;0.70;;
60488;SDS011;46331;49.252;8.904;2023-04-24T01:44:56;4.05;;;0.50;;
60488;SDS011;46331;49.252;8.904;2023-04-24T01:45:37;3.35;;;0.50;;
60488;SDS011;46331;49.252;8.904;2023-04-24T01:46:18;2.23;;;0.40;;
60488;SDS011;46331;49.252;8.904;2023-04-24T01:47:00;2.28;;;0.50;;
60488;SDS011;46331;49.252;8.904;2023-04-24T01:47:40;3.72;;;0.50;;
60488;SDS011;46331;49.252;8.904;2023-04-24T01:48:21;1.90;;;0.40;;
60488;SDS011;46331;49.252;8.904;2023-04-24T01:49:02;2.50;;;0.40;;
60488;SDS011;46331;49.252;8.904;2023-04-24T01:49:43;3.58;;;0.50;;
60488;SDS011;46331;49.252;8.904;2023-04-24T01:50:23;1.70;;;0.40;;
60488;SDS011;46331;49.252;8.904;2023-04-24T01:51:04;3.63;;;0.50;;
60488;SDS011;46331;49.252;8.904;2023-04-24T01:51:44;1.50;;;0.30;;
60488;SDS011;46331;49.252;8.904;2023-04-24T01:52:25;3.70;;;0.55;;
60488;SDS011;46331;49.252;8.904;2023-04-24T01:53:07;2.15;;;0.40;;
60488;SDS011;46331;49.252;8.904;2023-04-24T01:53:50;1.70;;;0.43;;
60488;SDS011;46331;49.252;8.904;2023-04-24T01:54:30;2.78;;;0.52;;
60488;SDS011;46331;49.252;8.904;2023-04-24T01:55:11;3.07;;;0.30;;
60488;SDS011;46331;49.252;8.904;2023-04-24T01:55:51;2.53;;;0.40;;
60488;SDS011;46331;49.252;8.904;2023-04-24T01:56:35;3.23;;;0.60;;
60488;SDS011;46331;49.252;8.904;2023-04-24T01:57:19;2.03;;;0.40;;
60488;SDS011;46331;49.252;8.904;2023-04-24T01:58:00;1.88;;;0.30;;
60488;SDS011;46331;49.252;8.904;2023-04-24T01:58:41;4.97;;;0.50;;
60488;SDS011;46331;49.252;8.904;2023-04-24T01:59:23;2.28;;;0.40;;
60488;SDS011;46331;49.252;8.904;2023-04-24T02:00:05;2.20;;;0.40;;
60488;SDS011;46331;49.252;8.904;2023-04-24T02:00:55;5.15;;;0.55;;
60488;SDS011;46331;49.252;8.904;2023-04-24T02:01:37;3.78;;;0.40;;
60488;SDS011;46331;49.252;8.904;2023-04-24T02:02:18;3.60;;;0.40;;
60488;SDS011;46331;49.252;8.904;2023-04-24T02:02:58;1.63;;;0.40;;
60488;SDS011;46331;49.252;8.904;2023-04-24T02:03:40;3.00;;;0.50;;
60488;SDS011;46331;49.252;8.904;2023-04-24T02:04:21;2.80;;;0.50;;
60488;SDS011;46331;49.252;8.904;2023-04-24T02:05:01;3.90;;;0.50;;
60488;SDS011;46331;49.252;8.904;2023-04-24T02:05:45;1.98;;;0.50;;
60488;SDS011;46331;49.252;8.904;2023-04-24T02:06:26;1.98;;;0.50;;
60488;SDS011;46331;49.252;8.904;2023-04-24T02:07:07;3.03;;;0.50;;
60488;SDS011;46331;49.252;8.904;2023-04-24T02:07:48;3.42;;;0.60;;
60488;SDS011;46331;49.252;8.904;2023-04-24T02:08:28;2.63;;;0.40;;
60488;SDS011;46331;49.252;8.904;2023-04-24T02:09:09;2.23;;;0.43;;
60488;SDS011;46331;49.252;8.904;2023-04-24T02:09:50;2.42;;;0.52;;
60488;SDS011;46331;49.252;8.904;2023-04-24T02:10:31;3.05;;;0.70;;
60488;SDS011;46331;49.252;8.904;2023-04-24T02:11:12;2.70;;;0.50;;
60488;SDS011;46331;49.252;8.904;2023-04-24T02:11:53;4.37;;;0.50;;
60488;SDS011;46331;49.252;8.904;2023-04-24T02:12:33;3.43;;;0.40;;
60488;SDS011;46331;49.252;8.904;2023-04-24T02:13:14;5.47;;;0.50;;
60488;SDS011;46331;49.252;8.904;2023-04-24T02:13:55;5.07;;;0.70;;
60488;SDS011;46331;49.252;8.904;2023-04-24T02:14:35;3.67;;;0.57;;
60488;SDS011;46331;49.252;8.904;2023-04-24T02:15:17;1.83;;;0.40;;
60488;SDS011;46331;49.252;8.904;2023-04-24T02:15:58;2.67;;;0.60;;
60488;SDS011;46331;49.252;8.904;2023-04-24T02:16:39;3.08;;;0.65;;
60488;SDS011;46331;49.252;8.904;2023-04-24T02:17:19;2.90;;;0.50;;
60488;SDS011;46331;49.252;8.904;2023-04-24T02:18:00;4.03;;;0.65;;
60488;SDS011;46331;49.252;8.904;2023-04-24T02:18:40;4.50;;;0.50;;
60488;SDS011;46331;49.252;8.904;2023-04-24T02:19:21;2.97;;;0.60;;
60488;SDS011;46331;49.252;8.904;2023-04-24T02:20:07;4.88;;;0.60;;
60488;SDS011;46331;49.252;8.904;2023-04-24T02:20:48;6.35;;;0.60;;
60488;SDS011;46331;49.252;8.904;2023-04-24T02:21:28;1.77;;;0.53;;
60488;SDS011;46331;49.252;8.904;2023-04-24T02:22:09;1.63;;;0.30;;
60488;SDS011;46331;49.252;8.904;2023-04-24T02:22:50;2.78;;;0.45;;
60488;SDS011;46331;49.252;8.904;2023-04-24T02:23:32;2.95;;;0.45;;
60488;SDS011;46331;49.252;8.904;2023-04-24T02:24:12;2.57;;;0.50;;
60488;SDS011;46331;49.252;8.904;2023-04-24T02:24:53;1.67;;;0.40;;
60488;SDS011;46331;49.252;8.904;2023-04-24T02:25:33;3.13;;;0.95;;
60488;SDS011;46331;49.252;8.904;2023-04-24T02:26:14;1.63;;;0.40;;
60488;SDS011;46331;49.252;8.904;2023-04-24T02:26:55;2.05;;;0.40;;
60488;SDS011;46331;49.252;8.904;2023-04-24T02:27:36;3.05;;;0.40;;
60488;SDS011;46331;49.252;8.904;2023-04-24T02:28:19;3.25;;;0.50;;
60488;SDS011;46331;49.252;8.904;2023-04-24T02:29:00;3.03;;;0.60;;
60488;SDS011;46331;49.252;8.904;2023-04-24T02:29:40;2.23;;;0.43;;
60488;SDS011;46331;49.252;8.904;2023-04-24T02:30:21;4.15;;;0.57;;
60488;SDS011;46331;49.252;8.904;2023-04-24T02:31:01;3.30;;;0.60;;
60488;SDS011;46331;49.252;8.904;2023-04-24T02:31:42;2.67;;;0.50;;
60488;SDS011;46331;49.252;8.904;2023-04-24T02:32:22;2.77;;;0.47;;
60488;SDS011;46331;49.252;8.904;2023-04-24T02:33:03;3.92;;;0.70;;
60488;SDS011;46331;49.252;8.904;2023-04-24T02:33:44;2.65;;;0.55;;
60488;SDS011;46331;49.252;8.904;2023-04-24T02:34:24;3.00;;;0.53;;
60488;SDS011;46331;49.252;8.904;2023-04-24T02:35:05;3.23;;;0.60;;
60488;SDS011;46331;49.252;8.904;2023-04-24T02:35:46;3.38;;;0.68;;
60488;SDS011;46331;49.252;8.904;2023-04-24T02:36:27;2.88;;;0.57;;
60488;SDS011;46331;49.252;8.904;2023-04-24T02:37:07;4.07;;;0.50;;
60488;SDS011;46331;49.252;8.904;2023-04-24T02:37:48;4.35;;;0.60;;
60488;SDS011;46331;49.252;8.904;2023-04-24T02:38:28;2.70;;;0.50;;
60488;SDS011;46331;49.252;8.904;2023-04-24T02:39:09;3.08;;;0.60;;
60488;SDS011;46331;49.252;8.904;2023-04-24T02:39:50;4.33;;;0.80;;
60488;SDS011;46331;49.252;8.904;2023-04-24T02:40:30;3.25;;;1.00;;
60488;SDS011;46331;49.252;8.904;2023-04-24T02:41:11;3.80;;;0.63;;
60488;SDS011;46331;49.252;8.904;2023-04-24T02:41:52;3.97;;;0.47;;
60488;SDS011;46331;49.252;8.904;2023-04-24T02:42:32;3.13;;;0.47;;
60488;SDS011;46331;49.252;8.904;2023-04-24T02:43:13;4.68;;;0.52;;
60488;SDS011;46331;49.252;8.904;2023-04-24T02:43:53;3.37;;;0.70;;
60488;SDS011;46331;49.252;8.904;2023-04-24T02:44:35;3.47;;;0.70;;
60488;SDS011;46331;49.252;8.904;2023-04-24T02:45:15;3.65;;;0.80;;
60488;SDS011;46331;49.252;8.904;2023-04-24T02:45:56;9.23;;;1.87;;
60488;SDS011;46331;49.252;8.904;2023-04-24T02:46:37;4.35;;;1.10;;
60488;SDS011;46331;49.252;8.904;2023-04-24T02:47:17;5.67;;;0.90;;
60488;SDS011;46331;49.252;8.904;2023-04-24T02:47:58;3.72;;;0.93;;
60488;SDS011;46331;49.252;8.904;2023-04-24T02:48:38;3.53;;;0.70;;
60488;SDS011;46331;49.252;8.904;2023-04-24T02:49:19;3.25;;;0.80;;
60488;SDS011;46331;49.252;8.904;2023-04-24T02:50:01;4.70;;;0.80;;
60488;SDS011;46331;49.252;8.904;2023-04-24T02:50:43;5.80;;;0.60;;
60488;SDS011;46331;49.252;8.904;2023-04-24T02:51:24;3.10;;;0.60;;
60488;SDS011;46331;49.252;8.904;2023-04-24T02:52:05;3.55;;;0.60;;
60488;SDS011;46331;49.252;8.904;2023-04-24T02:52:45;4.37;;;0.60;;
60488;SDS011;46331;49.252;8.904;2023-04-24T02:53:26;3.60;;;0.63;;
60488;SDS011;46331;49.252;8.904;2023-04-24T02:54:10;3.37;;;0.90;;
60488;SDS011;46331;49.252;8.904;2023-04-24T02:54:51;3.08;;;0.70;;
60488;SDS011;46331;49.252;8.904;2023-04-24T02:55:31;4.00;;;0.77;;
60488;SDS011;46331;49.252;8.904;2023-04-24T02:56:12;4.93;;;0.80;;
60488;SDS011;46331;49.252;8.904;2023-04-24T02:56:53;3.60;;;0.90;;
60488;SDS011;46331;49.252;8.904;2023-04-24T02:57:33;4.13;;;0.73;;
60488;SDS011;46331;49.252;8.904;2023-04-24T02:58:14;3.63;;;0.70;;
60488;SDS011;46331;49.252;8.904;2023-04-24T02:58:55;2.85;;;0.60;;
60488;SDS011;46331;49.252;8.904;2023-04-24T02:59:35;2.93;;;0.73;;
60488;SDS011;46331;49.252;8.904;2023-04-24T03:00:16;3.75;;;0.70;;
60488;SDS011;46331;49.252;8.904;2023-04-24T03:00:56;5.67;;;0.70;;
60488;SDS011;46331;49.252;8.904;2023-04-24T03:01:37;5.25;;;0.85;;
60488;SDS011;46331;49.252;8.904;2023-04-24T03:02:18;3.90;;;0.80;;
60488;SDS011;46331;49.252;8.904;2023-04-24T03:02:58;2.67;;;0.52;;
60488;SDS011;46331;49.252;8.904;2023-04-24T03:03:39;6.43;;;1.20;;
60488;SDS011;46331;49.252;8.904;2023-04-24T03:04:20;5.78;;;0.82;;
60488;SDS011;46331;49.252;8.904;2023-04-24T03:05:00;3.77;;;1.00;;
60488;SDS011;46331;49.252;8.904;2023-04-24T03:05:43;5.05;;;1.20;;
60488;SDS011;46331;49.252;8.904;2023-04-24T03:06:24;3.97;;;1.00;;
60488;SDS011;46331;49.252;8.904;2023-04-24T03:07:04;4.63;;;0.90;;
60488;SDS011;46331;49.252;8.904;2023-04-24T03:07:45;4.70;;;1.38;;
60488;SDS011;46331;49.252;8.904;2023-04-24T03:08:26;5.47;;;1.43;;
60488;SDS011;46331;49.252;8.904;2023-04-24T03:09:06;5.72;;;1.33;;
60488;SDS011;46331;49.252;8.904;2023-04-24T03:09:47;4.00;;;1.10;;
60488;SDS011;46331;49.252;8.904;2023-04-24T03:10:29;5.57;;;1.30;;
60488;SDS011;46331;49.252;8.904;2023-04-24T03:11:09;5.73;;;1.30;;
60488;SDS011;46331;49.252;8.904;2023-04-24T03:11:50;5.20;;;1.40;;
60488;SDS011;46331;49.252;8.904;2023-04-24T03:12:31;4.73;;;1.03;;
60488;SDS011;46331;49.252;8.904;2023-04-24T03:13:11;3.90;;;1.00;;
60488;SDS011;46331;49.252;8.904;2023-04-24T03:13:52;5.70;;;1.25;;
60488;SDS011;46331;49.252;8.904;2023-04-24T03:14:33;4.53;;;1.15;;
60488;SDS011;46331;49.252;8.904;2023-04-24T03:15:14;4.10;;;0.70;;
60488;SDS011;46331;49.252;8.904;2023-04-24T03:15:55;4.60;;;0.80;;
60488;SDS011;46331;49.252;8.904;2023-04-24T03:16:36;4.88;;;0.90;;
60488;SDS011;46331;49.252;8.904;2023-04-24T03:17:17;3.47;;;0.80;;
60488;SDS011;46331;49.252;8.904;2023-04-24T03:18:00;5.05;;;0.70;;
60488;SDS011;46331;49.252;8.904;2023-04-24T03:18:41;4.30;;;0.60;;
60488;SDS011;46331;49.252;8.904;2023-04-24T03:19:22;3.20;;;0.73;;
60488;SDS011;46331;49.252;8.904;2023-04-24T03:20:13;5.75;;;0.60;;
60488;SDS011;46331;49.252;8.904;2023-04-24T03:20:54;3.20;;;0.52;;
60488;SDS011;46331;49.252;8.904;2023-04-24T03:21:35;2.70;;;0.70;;
60488;SDS011;46331;49.252;8.904;2023-04-24T03:22:16;1.73;;;0.40;;
60488;SDS011;46331;49.252;8.904;2023-04-24T03:22:57;4.47;;;0.77;;
60488;SDS011;46331;49.252;8.904;2023-04-24T03:23:38;4.15;;;0.63;;
60488;SDS011;46331;49.252;8.904;2023-04-24T03:24:19;2.22;;;0.40;;
60488;SDS011;46331;49.252;8.904;2023-04-24T03:25:01;2.08;;;0.47;;
60488;SDS011;46331;49.252;8.904;2023-04-24T03:25:42;4.82;;;0.60;;
60488;SDS011;46331;49.252;8.904;2023-04-24T03:26:24;3.27;;;0.73;;
60488;SDS011;46331;49.252;8.904;2023-04-24T03:27:28;4.43;;;0.85;;
60488;SDS011;46331;49.252;8.904;2023-04-24T03:28:29;2.90;;;0.60;;
60488;SDS011;46331;49.252;8.904;2023-04-24T03:29:13;3.40;;;0.60;;
60488;SDS011;46331;49.252;8.904;2023-04-24T03:29:54;2.95;;;0.50;;
60488;SDS011;46331;49.252;8.904;2023-04-24T03:30:38;3.25;;;0.63;;
60488;SDS011;46331;49.252;8.904;2023-04-24T03:31:19;3.87;;;0.70;;
60488;SDS011;46331;49.252;8.904;2023-04-24T03:32:01;2.38;;;0.40;;
60488;SDS011;46331;49.252;8.904;2023-04-24T03:32:42;5.28;;;0.77;;
60488;SDS011;46331;49.252;8.904;2023-04-24T03:33:26;5.80;;;0.70;;
60488;SDS011;46331;49.252;8.904;2023-04-24T03:34:13;2.70;;;0.40;;
60488;SDS011;46331;49.252;8.904;2023-04-24T03:34:53;5.60;;;0.60;;
60488;SDS011;46331;49.252;8.904;2023-04-24T03:35:34;2.38;;;0.52;;
60488;SDS011;46331;49.252;8.904;2023-04-24T03:36:18;2.30;;;0.40;;
60488;SDS011;46331;49.252;8.904;2023-04-24T03:36:59;3.55;;;0.50;;
60488;SDS011;46331;49.252;8.904;2023-04-24T03:37:40;3.28;;;0.75;;
60488;SDS011;46331;49.252;8.904;2023-04-24T03:38:59;3.45;;;0.68;;
60488;SDS011;46331;49.252;8.904;2023-04-24T03:39:43;4.78;;;0.95;;
60488;SDS011;46331;49.252;8.904;2023-04-24T03:40:24;3.13;;;0.38;;
60488;SDS011;46331;49.252;8.904;2023-04-24T03:41:05;3.20;;;0.70;;
60488;SDS011;46331;49.252;8.904;2023-04-24T03:42:00;2.20;;;0.40;;
60488;SDS011;46331;49.252;8.904;2023-04-24T03:42:54;2.65;;;0.43;;
60488;SDS011;46331;49.252;8.904;2023-04-24T03:43:35;3.88;;;0.47;;
60488;SDS011;46331;49.252;8.904;2023-04-24T03:44:16;5.13;;;0.60;;
60488;SDS011;46331;49.252;8.904;2023-04-24T03:44:56;3.20;;;0.40;;
60488;SDS011;46331;49.252;8.904;2023-04-24T03:45:45;3.08;;;0.60;;
60488;SDS011;46331;49.252;8.904;2023-04-24T03:46:26;2.92;;;0.45;;
60488;SDS011;46331;49.252;8.904;2023-04-24T03:47:11;4.72;;;0.80;;
60488;SDS011;46331;49.252;8.904;2023-04-24T03:47:52;3.60;;;0.50;;
60488;SDS011;46331;49.252;8.904;2023-04-24T03:48:33;3.13;;;0.80;;
60488;SDS011;46331;49.252;8.904;2023-04-24T03:49:13;2.73;;;0.43;;
60488;SDS011;46331;49.252;8.904;2023-04-24T03:49:57;5.68;;;0.80;;
60488;SDS011;46331;49.252;8.904;2023-04-24T03:50:38;3.90;;;0.60;;
60488;SDS011;46331;49.252;8.904;2023-04-24T03:51:19;5.27;;;0.80;;
60488;SDS011;46331;49.252;8.904;2023-04-24T03:52:03;3.33;;;0.85;;
60488;SDS011;46331;49.252;8.904;2023-04-24T03:52:44;5.53;;;0.90;;
60488;SDS011;46331;49.252;8.904;2023-04-24T03:53:29;2.85;;;0.50;;
60488;SDS011;46331;49.252;8.904;2023-04-24T03:54:10;3.05;;;0.60;;
60488;SDS011;46331;49.252;8.904;2023-04-24T03:54:53;3.45;;;0.90;;
60488;SDS011;46331;49.252;8.904;2023-04-24T03:55:33;2.57;;;0.67;;
60488;SDS011;46331;49.252;8.904;2023-04-24T03:56:14;2.28;;;0.60;;
60488;SDS011;46331;49.252;8.904;2023-04-24T03:56:55;5.40;;;0.88;;
60488;SDS011;46331;49.252;8.904;2023-04-24T03:57:37;3.47;;;0.70;;
60488;SDS011;46331;49.252;8.904;2023-04-24T03:58:26;4.03;;;0.88;;
60488;SDS011;46331;49.252;8.904;2023-04-24T03:59:08;3.60;;;0.70;;
60488;SDS011;46331;49.252;8.904;2023-04-24T03:59:50;3.40;;;0.80;;
60488;SDS011;46331;49.252;8.904;2023-04-24T04:00:32;3.53;;;0.70;;
60488;SDS011;46331;49.252;8.904;2023-04-24T04:01:33;3.03;;;0.80;;
60488;SDS011;46331;49.252;8.904;2023-04-24T04:02:21;3.70;;;0.80;;
60488;SDS011;46331;49.252;8.904;2023-04-24T04:03:02;5.25;;;0.82;;
60488;SDS011;46331;49.252;8.904;2023-04-24T04:03:43;3.78;;;0.90;;
60488;SDS011;46331;49.252;8.904;2023-04-24T04:04:24;3.23;;;0.80;;
60488;SDS011;46331;49.252;8.904;2023-04-24T04:05:05;4.90;;;0.82;;
60488;SDS011;46331;49.252;8.904;2023-04-24T04:05:46;3.58;;;0.90;;
60488;SDS011;46331;49.252;8.904;2023-04-24T04:06:26;3.50;;;0.80;;
60488;SDS011;46331;49.252;8.904;2023-04-24T04:07:08;3.90;;;0.88;;
60488;SDS011;46331;49.252;8.904;2023-04-24T04:07:49;4.10;;;0.90;;
60488;SDS011;46331;49.252;8.904;2023-04-24T04:08:30;3.00;;;0.90;;
60488;SDS011;46331;49.252;8.904;2023-04-24T04:09:11;5.88;;;0.90;;
60488;SDS011;46331;49.252;8.904;2023-04-24T04:09:52;2.78;;;0.88;;
60488;SDS011;46331;49.252;8.904;2023-04-24T04:10:32;2.67;;;0.90;;
60488;SDS011;46331;49.252;8.904;2023-04-24T04:11:13;3.88;;;1.00;;